Nearby METAR Reports

 

KMTN - Baltimore/Martin, Maryland, USA
Distance from station: SSE 8mi, 13km
Updated: Mon, 27-Apr-2015 1:45pm EDT
Overcast
Overcast
 Wind from WNW
Wind: WNW 14 mph , 22 km/h
Temperature: 57°F , 14°C
Dew Point: 37°F , 3°C
Humidity: 48%
Barometer: 29.79 inHg , 1008.8 hPa
Clouds: Overcast
Visibility: 10 miles , 16 km
Cloud details: Mostly cloudy 7000 ft
Overcast 10000 ft
2015/04/27 17:45 KMTN 271745Z 30012KT 10SM BKN070 OVC100 14/03 A2979
KDMH - Baltimore/Dwntwn, Maryland, USA
Distance from station: SW 12mi, 19km
Updated: Mon, 27-Apr-2015 1:54pm EDT

 
Temperature: 57°F , 14°C
Dew Point: 32°F , 0°C
Humidity: 39%
Barometer: 29.79 inHg , 1008.8 hPa
2015/04/27 17:54 KDMH 271754Z AUTO 14/00 A2979 RMK AO1 SLP087 T01390000 10150 20106 56000
 
KBWI - Balto/Wash Intl, Maryland, USA
Distance from station: SSW 20mi, 33km
Updated: Mon, 27-Apr-2015 1:54pm EDT
Overcast
Overcast
 Wind from WNW
Wind: WNW 13 mph , 20 km/h, Gust: 20 mph , 31 km/h
Temperature: 54°F , 12°C
Dew Point: 34°F , 1°C
Humidity: 47%
Barometer: 29.78 inHg , 1008.5 hPa
Clouds: Overcast
Visibility: 10 miles , 16 km
Cloud details: Mostly cloudy 5500 ft
Overcast 7500 ft
2015/04/27 17:54 KBWI 271754Z 29011G17KT 10SM BKN055 OVC075 12/01 A2978 RMK AO2 SLP084 T01220011 10150 20089 58001
KDMW - Carroll Cnty, Maryland, USA
Distance from station: WNW 30mi, 48km
Updated: Mon, 27-Apr-2015 1:30pm EDT
Mostly cloudy
Mostly cloudy
 Wind from NW
Wind: NW 7 mph , 11 km/h, Gust: 18 mph , 30 km/h
Temperature: 55°F , 13°C
Dew Point: 32°F , 0°C
Humidity: 41%
Barometer: 29.79 inHg , 1008.8 hPa
Clouds: Mostly cloudy
Visibility: 10 miles , 16 km
Cloud details: Mostly cloudy 5000 ft
Mostly cloudy 6000 ft
Mostly cloudy 7000 ft
2015/04/27 17:30 KDMW 271730Z AUTO 32006G16KT 10SM BKN050 BKN060 BKN070 13/00 A2979 RMK AO2
 
KNAK - Annapolis/Naval, Maryland, USA
Distance from station: S 30mi, 48km
Updated: Mon, 27-Apr-2015 1:54pm EDT
Overcast
Overcast
 Wind from NW
Wind: NW 12 mph , 19 km/h
Temperature: 57°F , 14°C
Dew Point: 34°F , 1°C
Humidity: 41%
Barometer: 29.78 inHg , 1008.5 hPa
Clouds: Overcast
Visibility: 10 miles , 16 km
Cloud details: Overcast 8000 ft
2015/04/27 17:54 KNAK 271754Z AUTO 32010KT 10SM OVC080 14/01 A2978 RMK AO2 SLP085 T01390006 10139 20100 58003
KW29 - Stevensville, Maryland, USA
Distance from station: SSE 31mi, 50km
Updated: Mon, 27-Apr-2015 2:12pm EDT

 Wind from WNW
Wind: WNW 10 mph , 17 km/h
Barometer: 29.78 inHg , 1008.5 hPa
Visibility: 10 miles , 16 km
2015/04/27 18:12 KW29 271812Z AUTO 29009KT 10SM A2978 RMK AO1
 
KCGS - College Park, Maryland, USA
Distance from station: SW 38mi, 61km
Updated: Mon, 27-Apr-2015 2:10pm EDT
Overcast
Overcast
 Wind from NW
Wind: NW 10 mph , 17 km/h, Gust: 18 mph , 30 km/h
Temperature: 55°F , 13°C
Dew Point: 34°F , 1°C
Humidity: 44%
Barometer: 29.79 inHg , 1008.8 hPa
Clouds: Overcast
Visibility: 10 miles , 16 km
Cloud details: Overcast 6000 ft
2015/04/27 18:10 KCGS 271810Z AUTO 31009G16KT 10SM OVC060 13/01 A2979 RMK AO1
KGAI - Gaithersburg, Maryland, USA
Distance from station: WSW 40mi, 65km
Updated: Mon, 27-Apr-2015 2:15pm EDT
Mostly cloudy
Mostly cloudy
 Wind from NW
Wind: NW 12 mph , 19 km/h, Gust: 17 mph , 28 km/h
Temperature: 55°F , 13°C
Dew Point: 34°F , 1°C
Humidity: 44%
Barometer: 29.82 inHg , 1009.8 hPa
Clouds: Mostly cloudy
Visibility: 10 miles , 16 km
Cloud details: Mostly cloudy 6000 ft
Mostly cloudy 7500 ft
2015/04/27 18:15 KGAI 271815Z AUTO 31010G15KT 10SM BKN060 BKN075 13/01 A2982 RMK AO1
 
KTHV - York, Pennsylvania, USA
Distance from station: NNW 40mi, 65km
Updated: Mon, 27-Apr-2015 1:53pm EDT
Overcast
Overcast
 Wind from NNW
Wind: NNW 10 mph , 17 km/h
Temperature: 55°F , 13°C
Dew Point: 32°F , 0°C
Humidity: 41%
Barometer: 29.78 inHg , 1008.5 hPa
Clouds: Overcast
Visibility: 10 miles , 16 km
Cloud details: Overcast 6000 ft
2015/04/27 17:53 KTHV 271753Z AUTO 34009KT 10SM OVC060 13/00 A2978 RMK AO2 SLP088 T01280000 10144 20072 50002
KFDK - Frederick, Maryland, USA
Distance from station: W 47mi, 75km
Updated: Mon, 27-Apr-2015 1:47pm EDT
Mostly cloudy
Mostly cloudy
 Wind from NW
Wind: NW 9 mph , 15 km/h, Gust: 18 mph , 30 km/h
Temperature: 59°F , 15°C
Dew Point: 28°F , -2°C
Humidity: 31%
Clouds: Mostly cloudy
Visibility: 10 miles , 16 km
Cloud details: Mostly cloudy 7000 ft
2015/04/27 17:47 KFDK 271747Z 31008G16KT 10SM BKN070 15/M02 2982
 
KESN - Easton/Newnam, Maryland, USA
Distance from station: SSE 48mi, 78km
Updated: Mon, 27-Apr-2015 1:50pm EDT
Partly cloudy
Partly cloudy
 Wind from NW
Wind: NW 12 mph , 19 km/h, Gust: 23 mph , 37 km/h
Temperature: 59°F , 15°C
Dew Point: 36°F , 2°C
Humidity: 42%
Barometer: 29.82 inHg , 1009.8 hPa
Clouds: Partly cloudy
Visibility: 10 miles , 16 km
Cloud details: Partly cloudy 7000 ft
2015/04/27 17:50 KESN 271750Z 31010G20KT 10SM SCT070 15/02 A2982
KDCA - Washington/Natl, Washington D.c., USA
Distance from station: SW 49mi, 79km
Updated: Mon, 27-Apr-2015 1:52pm EDT
Overcast
Overcast
 Wind from NW
Wind: NW 13 mph , 20 km/h, Gust: 22 mph , 35 km/h
Temperature: 57°F , 14°C
Dew Point: 34°F , 1°C
Humidity: 41%
Barometer: 29.80 inHg , 1009.1 hPa
Clouds: Overcast
Visibility: 10 miles , 16 km
Cloud details: Mostly cloudy 6000 ft
Overcast 8000 ft
2015/04/27 17:52 KDCA 271752Z 32011G19KT 10SM BKN060 OVC080 14/01 A2980 RMK AO2 SLP092 T01440011 10161 20117 50000
 
KLNS - Lancaster, Pennsylvania, USA
Distance from station: N 49mi, 79km
Updated: Mon, 27-Apr-2015 1:53pm EDT
Overcast
Overcast
 Wind from WNW
Wind: WNW 13 mph , 20 km/h
Temperature: 54°F , 12°C
Dew Point: 34°F , 1°C
Humidity: 47%
Barometer: 29.76 inHg , 1007.8 hPa
Clouds: Overcast
Visibility: 10 miles , 16 km
Cloud details: Overcast 6500 ft
2015/04/27 17:53 KLNS 271753Z 30011KT 10SM OVC065 12/01 A2976 RMK AO2 SLP078 T01220006 10133 20067 51000
KILG - Wilmington, Delaware, USA
Distance from station: ENE 50mi, 81km
Updated: Mon, 27-Apr-2015 1:51pm EDT
Overcast
Overcast
 Wind from NW
Wind: NW 18 mph , 30 km/h
Temperature: 57°F , 14°C
Dew Point: 32°F , 0°C
Humidity: 39%
Barometer: 29.75 inHg , 1007.5 hPa
Clouds: Overcast
Visibility: 10 miles , 16 km
Cloud details: Overcast 8000 ft
2015/04/27 17:51 KILG 271751Z 32016KT 10SM OVC080 14/00 A2975 RMK AO2 SLP074 T01390000 10156 20094 56002